createdAt,value
2019-04-29T00:01:31.084Z,10.01
2019-04-29T00:03:59.749Z,10.00
2019-04-29T00:06:28.428Z,10.05
2019-04-29T00:08:57.184Z,10.09
2019-04-29T00:11:29.083Z,10.05
2019-04-29T00:13:58.307Z,10.06
2019-04-29T00:16:34.349Z,9.94
2019-04-29T00:19:10.200Z,10.04
2019-04-29T00:21:40.454Z,10.06
2019-04-29T00:24:09.064Z,10.05
2019-04-29T00:26:37.799Z,9.99
2019-04-29T00:29:06.430Z,10.04
2019-04-29T00:31:35.158Z,9.94
2019-04-29T00:34:03.765Z,9.98
2019-04-29T00:36:36.720Z,9.88
2019-04-29T00:39:23.282Z,9.84
2019-04-29T00:41:59.282Z,9.88
2019-04-29T00:44:29.697Z,9.84
2019-04-29T00:46:58.319Z,9.74
2019-04-29T00:49:27.324Z,9.77
2019-04-29T00:51:58.928Z,9.68
2019-04-29T00:54:37.873Z,9.70
2019-04-29T00:57:06.475Z,9.69
2019-04-29T00:59:35.086Z,9.73
2019-04-29T01:02:04.206Z,9.86
2019-04-29T01:04:32.768Z,9.83
2019-04-29T01:07:01.311Z,9.76
2019-04-29T01:09:30.967Z,9.83
2019-04-29T01:11:59.590Z,9.77
2019-04-29T01:14:31.134Z,9.83
2019-04-29T01:16:59.693Z,9.73
2019-04-29T01:19:28.319Z,9.60
2019-04-29T01:21:56.931Z,9.59
2019-04-29T01:24:27.900Z,9.68
2019-04-29T01:26:58.158Z,9.62
2019-04-29T01:29:32.300Z,9.70
2019-04-29T01:32:00.914Z,9.74
2019-04-29T01:34:42.841Z,9.65
2019-04-29T01:37:11.454Z,9.64
2019-04-29T01:39:53.784Z,9.66
2019-04-29T01:42:23.976Z,9.38
2019-04-29T01:44:52.542Z,9.44
2019-04-29T01:47:21.091Z,9.40
2019-04-29T01:49:49.654Z,9.46
2019-04-29T01:52:18.263Z,9.32
2019-04-29T01:54:47.222Z,9.21
2019-04-29T01:57:15.893Z,9.28
2019-04-29T01:59:44.502Z,9.33
2019-04-29T02:02:13.215Z,9.37
2019-04-29T02:04:41.825Z,9.34
2019-04-29T02:07:10.442Z,9.38
2019-04-29T02:09:56.364Z,9.35
2019-04-29T02:12:26.833Z,9.31
2019-04-29T02:14:55.742Z,9.28
2019-04-29T02:17:24.459Z,9.20
2019-04-29T02:19:53.467Z,9.36
2019-04-29T02:22:29.457Z,9.20
2019-04-29T02:25:01.274Z,9.30
2019-04-29T02:27:29.852Z,9.24
2019-04-29T02:29:58.481Z,9.27
2019-04-29T02:32:27.189Z,9.08
2019-04-29T02:34:58.793Z,9.18
2019-04-29T02:37:30.499Z,9.11
2019-04-29T02:40:06.147Z,9.07
2019-04-29T02:42:51.487Z,9.00
2019-04-29T02:45:21.686Z,9.18
2019-04-29T02:47:50.244Z,9.10
2019-04-29T02:50:19.581Z,8.99
2019-04-29T02:52:48.585Z,8.94
2019-04-29T02:55:18.919Z,8.94
2019-04-29T02:57:55.330Z,8.92
2019-04-29T03:00:27.764Z,9.02
2019-04-29T03:02:58.098Z,9.08
2019-04-29T03:05:31.607Z,8.85
2019-04-29T03:08:00.651Z,8.93
2019-04-29T03:10:29.260Z,9.02
2019-04-29T03:12:57.878Z,8.97
2019-04-29T03:15:31.063Z,8.78
2019-04-29T03:18:00.007Z,8.87
2019-04-29T03:20:36.500Z,8.94
2019-04-29T03:23:09.611Z,8.85
2019-04-29T03:25:38.499Z,8.85
2019-04-29T03:28:07.155Z,8.96
2019-04-29T03:30:35.764Z,8.96
2019-04-29T03:33:04.798Z,8.95
2019-04-29T03:35:33.350Z,8.78
2019-04-29T03:38:01.929Z,8.78
2019-04-29T03:40:30.486Z,8.77
2019-04-29T03:42:59.043Z,8.92
2019-04-29T03:45:27.609Z,8.87
2019-04-29T03:47:58.029Z,8.94
2019-04-29T03:50:29.655Z,8.87
2019-04-29T03:52:58.371Z,8.97
2019-04-29T03:55:38.947Z,8.95
2019-04-29T03:58:00.665Z,8.91
2019-04-29T04:00:29.425Z,8.91
2019-04-29T04:03:17.814Z,8.85
2019-04-29T04:05:48.061Z,8.76
2019-04-29T04:08:21.491Z,8.75
2019-04-29T04:10:50.114Z,8.78
2019-04-29T04:13:18.725Z,8.89
2019-04-29T04:15:47.273Z,8.85
2019-04-29T04:18:29.465Z,8.85
2019-04-29T04:20:58.386Z,8.76
2019-04-29T04:23:26.959Z,8.89
2019-04-29T04:25:57.669Z,8.91
2019-04-29T04:28:28.539Z,8.86
2019-04-29T04:30:58.713Z,8.94
2019-04-29T04:33:28.795Z,8.98
2019-04-29T04:36:00.357Z,9.09
2019-04-29T04:38:28.937Z,9.06
2019-04-29T04:41:02.218Z,8.98
2019-04-29T04:43:30.786Z,9.03
2019-04-29T04:45:59.343Z,8.99
2019-04-29T04:48:29.578Z,9.01
2019-04-29T04:51:00.862Z,9.03
2019-04-29T04:53:29.477Z,9.12
2019-04-29T04:56:01.763Z,9.20
2019-04-29T04:58:30.760Z,9.23
2019-04-29T05:00:59.333Z,9.32
2019-04-29T05:03:30.011Z,9.37
2019-04-29T05:05:58.619Z,9.43
2019-04-29T05:08:28.708Z,9.30
2019-04-29T05:10:57.925Z,9.22
2019-04-29T05:13:28.388Z,9.27
2019-04-29T05:15:59.191Z,9.20
2019-04-29T05:18:27.767Z,9.31
2019-04-29T05:20:56.599Z,9.23
2019-04-29T05:23:25.198Z,9.24
2019-04-29T05:25:53.759Z,9.32
2019-04-29T05:28:22.419Z,9.25
2019-04-29T05:30:50.978Z,9.37
2019-04-29T05:33:19.637Z,9.38
2019-04-29T05:35:49.884Z,9.32
2019-04-29T05:38:29.563Z,9.38
2019-04-29T05:41:01.462Z,9.42
2019-04-29T05:43:33.456Z,9.43
2019-04-29T05:46:09.839Z,9.45
2019-04-29T05:48:38.458Z,9.44
2019-04-29T05:51:08.705Z,9.35
2019-04-29T05:53:41.823Z,9.30
2019-04-29T05:56:10.440Z,9.45
2019-04-29T05:58:39.601Z,9.52
2019-04-29T06:01:10.047Z,9.53
2019-04-29T06:03:39.839Z,9.47
2019-04-29T06:06:08.491Z,9.49
2019-04-29T06:08:39.260Z,9.63
2019-04-29T06:11:07.455Z,9.58
2019-04-29T06:13:36.066Z,9.55
2019-04-29T06:16:04.690Z,9.51
2019-04-29T06:18:33.379Z,9.53
2019-04-29T06:21:09.097Z,9.53
2019-04-29T06:23:32.673Z,9.59
2019-04-29T06:26:01.270Z,9.55
2019-04-29T06:28:29.899Z,9.65
2019-04-29T06:30:58.907Z,9.57
2019-04-29T06:33:31.038Z,9.64
2019-04-29T06:35:59.632Z,9.83
2019-04-29T06:38:31.016Z,9.94
2019-04-29T06:40:59.934Z,10.09
2019-04-29T06:43:30.352Z,9.95
2019-04-29T06:45:58.824Z,9.94
2019-04-29T06:48:28.954Z,9.89
2019-04-29T06:51:00.747Z,9.88
2019-04-29T06:53:29.301Z,9.85
2019-04-29T06:55:57.858Z,9.97
2019-04-29T06:58:26.499Z,10.01
2019-04-29T07:01:01.147Z,9.83
2019-04-29T07:03:26.639Z,10.01
2019-04-29T07:05:55.240Z,9.97
2019-04-29T07:08:23.796Z,9.91
2019-04-29T07:10:55.952Z,9.93
2019-04-29T07:13:24.452Z,9.88
2019-04-29T07:15:53.340Z,9.79
2019-04-29T07:18:21.937Z,9.76
2019-04-29T07:20:50.652Z,9.85
2019-04-29T07:23:19.205Z,9.79
2019-04-29T07:25:47.787Z,9.82
2019-04-29T07:28:18.486Z,9.92
2019-04-29T07:31:01.101Z,9.97
2019-04-29T07:33:22.078Z,10.05
2019-04-29T07:35:48.291Z,9.93
2019-04-29T07:38:18.009Z,9.85
2019-04-29T07:40:46.633Z,9.66
2019-04-29T07:43:15.188Z,9.71
2019-04-29T07:45:51.841Z,9.58
2019-04-29T07:48:20.453Z,9.67
2019-04-29T07:50:48.982Z,9.61
2019-04-29T07:53:21.867Z,9.69
2019-04-29T07:55:48.030Z,9.47
2019-04-29T07:58:16.639Z,9.57
2019-04-29T08:00:48.752Z,9.58
2019-04-29T08:03:15.602Z,9.67
2019-04-29T08:05:44.226Z,9.65
2019-04-29T08:08:16.796Z,9.64
2019-04-29T08:10:54.067Z,9.63
2019-04-29T08:13:14.750Z,9.78
2019-04-29T08:15:43.656Z,9.60
2019-04-29T08:18:16.258Z,9.64
2019-04-29T08:20:42.961Z,9.76
2019-04-29T08:23:11.614Z,9.79
2019-04-29T08:25:40.243Z,10.00
2019-04-29T08:28:08.863Z,9.94
2019-04-29T08:30:37.483Z,10.05
2019-04-29T08:33:07.489Z,10.04
2019-04-29T08:35:37.074Z,10.04
2019-04-29T08:38:06.721Z,10.19
2019-04-29T08:40:35.435Z,10.22
2019-04-29T08:43:22.374Z,10.29
2019-04-29T08:45:52.825Z,10.22
2019-04-29T08:48:21.435Z,10.08
2019-04-29T08:50:49.996Z,10.13
2019-04-29T08:53:18.977Z,10.06
2019-04-29T08:55:47.997Z,10.19
2019-04-29T08:58:16.608Z,10.17
2019-04-29T09:00:45.634Z,10.21
2019-04-29T09:03:14.282Z,10.48
2019-04-29T09:05:46.224Z,10.74
2019-04-29T09:08:13.948Z,10.96
2019-04-29T09:10:42.543Z,11.31
2019-04-29T09:13:11.100Z,11.30
2019-04-29T09:15:39.761Z,11.22
2019-04-29T09:18:10.819Z,11.21
2019-04-29T09:20:39.037Z,11.09
2019-04-29T09:23:12.377Z,11.28
2019-04-29T09:25:42.637Z,11.31
2019-04-29T09:28:17.952Z,11.35
2019-04-29T09:30:43.656Z,11.36
2019-04-29T09:33:13.110Z,11.34
2019-04-29T09:35:42.531Z,11.39
2019-04-29T09:38:11.224Z,11.54
2019-04-29T09:40:45.668Z,11.09
2019-04-29T09:43:32.919Z,11.03
2019-04-29T09:46:18.760Z,10.90
2019-04-29T09:48:47.453Z,10.72
2019-04-29T09:51:18.105Z,10.72
2019-04-29T09:53:46.638Z,10.89
2019-04-29T09:56:15.223Z,11.05
2019-04-29T09:58:43.784Z,10.83
2019-04-29T10:01:19.119Z,11.03
2019-04-29T10:04:01.413Z,11.11
2019-04-29T10:06:31.618Z,10.94
2019-04-29T10:09:00.222Z,10.80
2019-04-29T10:11:28.944Z,11.10
2019-04-29T10:14:00.116Z,11.31
2019-04-29T10:16:39.477Z,11.17
2019-04-29T10:19:25.190Z,11.35
2019-04-29T10:21:54.206Z,11.43
2019-04-29T10:24:23.033Z,11.23
2019-04-29T10:26:52.175Z,11.51
2019-04-29T10:29:25.608Z,11.42
2019-04-29T10:31:53.284Z,11.69
2019-04-29T10:34:21.854Z,11.66
2019-04-29T10:36:52.304Z,11.55
2019-04-29T10:39:28.700Z,11.49
2019-04-29T10:42:00.392Z,11.47
2019-04-29T10:44:46.554Z,11.35
2019-04-29T10:47:33.176Z,11.51
2019-04-29T10:50:03.763Z,11.57
2019-04-29T10:52:34.493Z,11.78
2019-04-29T10:55:02.827Z,11.89
2019-04-29T10:57:31.438Z,12.06
2019-04-29T11:00:21.727Z,11.91
2019-04-29T11:02:51.188Z,12.10
2019-04-29T11:05:30.254Z,12.40
2019-04-29T11:08:02.625Z,12.53
2019-04-29T11:10:32.893Z,12.78
2019-04-29T11:13:01.543Z,12.70
2019-04-29T11:15:34.980Z,12.93
2019-04-29T11:18:04.578Z,12.80
2019-04-29T11:20:33.575Z,12.72
2019-04-29T11:23:16.453Z,12.69
2019-04-29T11:26:00.563Z,12.55
2019-04-29T11:28:30.172Z,12.68
2019-04-29T11:30:59.242Z,12.73
2019-04-29T11:33:30.988Z,12.83
2019-04-29T11:36:03.833Z,13.06
2019-04-29T11:38:33.007Z,12.82
2019-04-29T11:41:01.938Z,13.30
2019-04-29T11:43:31.186Z,13.79
2019-04-29T11:46:00.029Z,14.05
2019-04-29T11:48:28.689Z,14.28
2019-04-29T11:51:01.816Z,14.54
2019-04-29T11:53:30.392Z,14.58
2019-04-29T11:55:59.136Z,14.60
2019-04-29T11:58:44.760Z,14.36
2019-04-29T12:01:39.273Z,14.42
2019-04-29T12:04:13.960Z,14.49
2019-04-29T12:06:43.173Z,14.33
2019-04-29T12:09:12.196Z,14.02
2019-04-29T12:11:40.804Z,13.78
2019-04-29T12:14:14.301Z,14.11
2019-04-29T12:16:47.252Z,14.14
2019-04-29T12:19:23.134Z,14.11
2019-04-29T12:21:51.848Z,14.04
2019-04-29T12:24:21.161Z,14.43
2019-04-29T12:26:49.882Z,14.60
2019-04-29T12:29:19.649Z,14.86
2019-04-29T12:32:01.981Z,15.13
2019-04-29T12:34:32.229Z,14.66
2019-04-29T12:37:00.952Z,15.06
2019-04-29T12:39:47.908Z,15.04
2019-04-29T12:42:35.768Z,15.13
2019-04-29T12:45:26.830Z,15.22
2019-04-29T12:47:57.602Z,15.23
2019-04-29T12:50:26.488Z,15.27
2019-04-29T12:52:57.014Z,14.87
2019-04-29T12:55:46.073Z,15.05
2019-04-29T12:58:12.764Z,15.31
2019-04-29T13:00:48.042Z,15.67
2019-04-29T13:03:30.975Z,15.94
2019-04-29T13:06:02.643Z,15.31
2019-04-29T13:08:41.739Z,15.36
2019-04-29T13:11:10.451Z,15.53
2019-04-29T13:13:39.163Z,15.53
2019-04-29T13:16:27.657Z,15.64
2019-04-29T13:19:11.576Z,15.38
2019-04-29T13:21:31.327Z,15.64
2019-04-29T13:24:13.394Z,15.88
2019-04-29T13:26:33.297Z,15.59
2019-04-29T13:29:01.605Z,15.80
2019-04-29T13:31:38.418Z,15.88
2019-04-29T13:34:14.565Z,16.01
2019-04-29T13:36:33.236Z,16.17
2019-04-29T13:39:01.888Z,16.41
2019-04-29T13:41:30.495Z,16.93
2019-04-29T13:44:05.639Z,17.30
2019-04-29T13:46:33.069Z,17.17
2019-04-29T13:49:13.461Z,16.53
2019-04-29T13:51:41.135Z,16.95
2019-04-29T13:54:09.767Z,16.90
2019-04-29T13:56:54.803Z,17.04
2019-04-29T13:59:12.422Z,16.70
2019-04-29T14:01:58.359Z,16.60
2019-04-29T14:04:24.264Z,16.61
2019-04-29T14:06:56.640Z,16.41
2019-04-29T14:09:19.030Z,16.43
2019-04-29T14:12:01.094Z,16.72
2019-04-29T14:14:22.740Z,16.95
2019-04-29T14:16:48.780Z,16.80
2019-04-29T14:19:20.449Z,16.89
2019-04-29T14:21:47.771Z,16.51
2019-04-29T14:24:16.325Z,16.54
2019-04-29T14:26:47.832Z,16.54
2019-04-29T14:29:15.716Z,16.35
2019-04-29T14:31:45.979Z,16.09
2019-04-29T14:34:20.493Z,16.15
2019-04-29T14:36:49.245Z,16.29
2019-04-29T14:39:36.183Z,16.31
2019-04-29T14:41:50.907Z,16.59
2019-04-29T14:44:33.342Z,16.80
2019-04-29T14:47:03.704Z,16.98
2019-04-29T14:49:39.738Z,16.90
2019-04-29T14:52:08.169Z,16.93
2019-04-29T14:54:41.876Z,16.98
2019-04-29T14:57:09.212Z,17.33
2019-04-29T14:59:38.239Z,17.02
2019-04-29T15:02:17.146Z,17.35
2019-04-29T15:04:45.373Z,16.93
2019-04-29T15:07:14.359Z,17.41
2019-04-29T15:09:58.040Z,18.22
2019-04-29T15:12:27.992Z,19.15
2019-04-29T15:15:14.142Z,19.72
2019-04-29T15:17:47.203Z,20.62
2019-04-29T15:20:17.644Z,21.51
2019-04-29T15:22:46.698Z,21.34
2019-04-29T15:25:16.741Z,20.91
2019-04-29T15:27:45.967Z,21.00
2019-04-29T15:30:15.395Z,20.05
2019-04-29T15:32:43.969Z,19.84
2019-04-29T15:35:13.038Z,20.19
2019-04-29T15:37:41.647Z,20.03
2019-04-29T15:40:10.593Z,20.11
2019-04-29T15:42:43.255Z,20.64
2019-04-29T15:45:09.911Z,20.65
2019-04-29T15:47:41.572Z,19.97
2019-04-29T15:50:18.226Z,20.34
2019-04-29T15:52:39.484Z,19.86
2019-04-29T15:55:08.542Z,19.56
2019-04-29T15:57:37.137Z,19.09
2019-04-29T16:00:21.463Z,18.73
2019-04-29T16:02:41.499Z,18.54
2019-04-29T16:05:17.192Z,18.23
2019-04-29T16:07:55.793Z,17.90
2019-04-29T16:10:41.562Z,17.71
2019-04-29T16:13:13.933Z,17.73
2019-04-29T16:15:42.558Z,17.91
2019-04-29T16:18:14.745Z,17.79
2019-04-29T16:20:42.443Z,17.95
2019-04-29T16:23:11.042Z,18.01
2019-04-29T16:25:40.826Z,17.85
2019-04-29T16:28:09.861Z,17.94
2019-04-29T16:30:38.565Z,17.73
2019-04-29T16:33:14.086Z,17.78
2019-04-29T16:35:38.045Z,17.67
2019-04-29T16:38:11.769Z,17.84
2019-04-29T16:40:39.479Z,17.79
2019-04-29T16:43:13.318Z,17.79
2019-04-29T16:45:44.160Z,17.64
2019-04-29T16:48:13.908Z,17.55
2019-04-29T16:50:42.923Z,17.42
2019-04-29T16:53:11.560Z,17.28
2019-04-29T16:58:17.714Z,17.00
2019-04-29T17:00:46.555Z,16.99
2019-04-29T17:03:11.593Z,16.85
2019-04-29T17:05:40.222Z,16.62
2019-04-29T17:08:09.326Z,16.56
2019-04-29T17:10:59.373Z,16.47
2019-04-29T17:13:29.541Z,16.50
2019-04-29T17:16:01.652Z,16.43
2019-04-29T17:18:30.364Z,16.24
2019-04-29T17:21:04.617Z,16.05
2019-04-29T17:23:29.458Z,15.92
2019-04-29T17:25:59.632Z,15.80
2019-04-29T17:28:35.130Z,15.66
2019-04-29T17:31:23.976Z,15.51
2019-04-29T17:33:57.440Z,15.34
2019-04-29T17:35:14.349Z,17.14
2019-04-29T17:36:26.392Z,15.22
2019-04-29T17:38:55.881Z,15.12
2019-04-29T17:41:24.539Z,15.08
2019-04-29T17:43:57.625Z,14.95
2019-04-29T17:46:27.837Z,14.93
2019-04-29T17:49:13.148Z,14.74
2019-04-29T17:51:42.200Z,14.56
2019-04-29T17:54:15.875Z,14.37
2019-04-29T17:57:25.070Z,14.31
2019-04-29T17:59:52.660Z,14.19
2019-04-29T18:02:39.407Z,14.05
2019-04-29T18:05:18.660Z,13.93
2019-04-29T18:07:51.885Z,13.83
2019-04-29T18:10:29.517Z,13.61
2019-04-29T18:12:57.115Z,13.51
2019-04-29T18:15:27.365Z,13.33
2019-04-29T18:17:56.290Z,13.24
2019-04-29T18:20:35.817Z,13.15
2019-04-29T18:23:15.830Z,13.04
2019-04-29T18:26:00.582Z,12.87
2019-04-29T18:28:29.303Z,12.72
2019-04-29T18:30:59.869Z,12.50
2019-04-29T18:33:30.400Z,12.54
2019-04-29T18:36:04.247Z,12.43
2019-04-29T18:38:29.186Z,12.24
2019-04-29T18:40:57.813Z,12.18
2019-04-29T18:43:26.837Z,12.13
2019-04-29T18:45:58.803Z,12.07
2019-04-29T18:48:27.965Z,11.93
2019-04-29T18:50:57.108Z,11.82
2019-04-29T18:53:26.564Z,11.71
2019-04-29T18:55:57.017Z,11.69
2019-04-29T18:58:28.059Z,11.65
2019-04-29T19:00:59.445Z,11.52
2019-04-29T19:03:33.159Z,11.36
2019-04-29T19:06:10.264Z,11.26
2019-04-29T19:08:35.809Z,11.12
2019-04-29T19:11:06.863Z,11.06
2019-04-29T19:13:36.248Z,10.96
2019-04-29T19:16:10.320Z,10.90
2019-04-29T19:18:35.628Z,10.84
2019-04-29T19:21:04.253Z,10.79
2019-04-29T19:23:33.055Z,10.68
2019-04-29T19:26:01.675Z,10.53
2019-04-29T19:28:32.405Z,10.48
2019-04-29T19:31:03.224Z,10.37
2019-04-29T19:33:37.625Z,10.36
2019-04-29T19:36:01.440Z,10.28
2019-04-29T19:38:30.055Z,10.23
2019-04-29T19:40:58.680Z,10.10
2019-04-29T19:43:28.953Z,10.04
2019-04-29T19:45:57.767Z,10.02
2019-04-29T19:48:27.246Z,9.91
2019-04-29T19:51:14.603Z,9.85
2019-04-29T19:53:30.154Z,9.70
2019-04-29T19:56:04.092Z,9.61
2019-04-29T19:58:31.625Z,9.55
2019-04-29T20:01:10.851Z,9.45
2019-04-29T20:03:37.926Z,9.34
2019-04-29T20:06:24.831Z,9.32
2019-04-29T20:08:53.896Z,9.28
2019-04-29T20:11:18.670Z,9.25
2019-04-29T20:14:01.302Z,9.15
2019-04-29T20:16:24.978Z,9.08
2019-04-29T20:19:02.521Z,9.00
2019-04-29T20:21:36.276Z,9.00
2019-04-29T20:24:09.651Z,8.98
2019-04-29T20:26:36.061Z,8.88
2019-04-29T20:29:07.305Z,8.84
2019-04-29T20:31:38.852Z,8.88
2019-04-29T20:34:06.506Z,8.79
2019-04-29T20:36:41.742Z,8.75
2019-04-29T20:39:10.988Z,8.70
2019-04-29T20:41:41.970Z,8.68
2019-04-29T20:44:09.449Z,8.68
2019-04-29T20:46:45.517Z,8.55
2019-04-29T20:49:08.810Z,8.49
2019-04-29T20:51:48.980Z,8.50
2019-04-29T20:54:15.943Z,8.37
2019-04-29T20:56:40.082Z,8.43
2019-04-29T20:59:12.524Z,8.29
2019-04-29T21:01:43.206Z,8.31
2019-04-29T21:04:11.283Z,8.16
2019-04-29T21:06:56.558Z,8.12
2019-04-29T21:09:10.572Z,8.17
2019-04-29T21:11:45.620Z,8.14
2019-04-29T21:14:18.494Z,8.10
2019-04-29T21:16:51.717Z,8.08
2019-04-29T21:19:20.326Z,8.09
2019-04-29T21:21:49.041Z,8.01
2019-04-29T21:24:18.758Z,7.94
2019-04-29T21:26:47.605Z,7.91
2019-04-29T21:29:19.466Z,7.82
2019-04-29T21:31:50.584Z,7.80
2019-04-29T21:34:17.772Z,7.75
2019-04-29T21:36:51.179Z,7.66
2019-04-29T21:39:27.377Z,7.58
2019-04-29T21:41:59.981Z,7.52
2019-04-29T21:44:29.184Z,7.51
2019-04-29T21:47:03.779Z,7.44
2019-04-29T21:49:29.823Z,7.45
2019-04-29T21:51:58.528Z,7.45
2019-04-29T21:54:28.684Z,7.41
2019-04-29T21:56:58.755Z,7.35
2019-04-29T21:59:29.292Z,7.37
2019-04-29T22:01:59.409Z,7.29
2019-04-29T22:04:32.856Z,7.25
2019-04-29T22:07:04.854Z,7.20
2019-04-29T22:09:36.149Z,7.24
2019-04-29T22:12:01.127Z,7.19
2019-04-29T22:14:29.748Z,7.09
2019-04-29T22:16:58.741Z,7.00
2019-04-29T22:19:28.892Z,6.93
2019-04-29T22:22:01.666Z,6.94
2019-04-29T22:24:30.692Z,6.92
2019-04-29T22:27:04.031Z,6.92
2019-04-29T22:29:32.007Z,6.96
2019-04-29T22:32:00.307Z,6.91
2019-04-29T22:34:28.884Z,6.91
2019-04-29T22:37:01.269Z,6.86
2019-04-29T22:39:30.195Z,6.84
2019-04-29T22:42:12.747Z,6.81
2019-04-29T22:44:41.705Z,6.81
2019-04-29T22:47:10.378Z,6.78
2019-04-29T22:49:39.000Z,6.74
2019-04-29T22:52:09.031Z,6.71
2019-04-29T22:54:37.920Z,6.69
2019-04-29T22:57:06.790Z,6.60
2019-04-29T22:59:35.502Z,6.64
2019-04-29T23:02:05.777Z,6.68
2019-04-29T23:04:35.141Z,6.61
2019-04-29T23:07:03.786Z,6.55
2019-04-29T23:09:32.355Z,6.62
2019-04-29T23:12:00.960Z,6.59
2019-04-29T23:14:29.618Z,6.52
2019-04-29T23:17:01.213Z,6.48
2019-04-29T23:19:30.165Z,6.35
2019-04-29T23:22:06.628Z,6.35
2019-04-29T23:24:46.652Z,6.41
2019-04-29T23:27:25.910Z,6.39
2019-04-29T23:29:54.566Z,6.35
2019-04-29T23:32:25.254Z,6.35
2019-04-29T23:34:55.033Z,6.32
2019-04-29T23:37:29.065Z,6.32
2019-04-29T23:39:55.749Z,6.26
2019-04-29T23:42:26.187Z,6.17
2019-04-29T23:44:57.079Z,6.24
2019-04-29T23:47:25.811Z,6.24
2019-04-29T23:49:57.680Z,6.15
2019-04-29T23:52:28.613Z,6.18
2019-04-29T23:55:01.599Z,6.18
2019-04-29T23:57:35.854Z,6.05
